createdAt,value
2023-10-20T00:01:07.675Z,13.58
2023-10-20T00:03:35.489Z,13.57
2023-10-20T00:06:05.856Z,13.56
2023-10-20T00:08:33.485Z,13.57
2023-10-20T00:11:05.057Z,13.56
2023-10-20T00:13:34.637Z,13.54
2023-10-20T00:16:02.250Z,13.55
2023-10-20T00:18:29.861Z,13.56
2023-10-20T00:20:57.418Z,13.58
2023-10-20T00:23:26.470Z,13.60
2023-10-20T00:25:54.005Z,13.63
2023-10-20T00:28:21.681Z,13.65
2023-10-20T00:30:49.281Z,13.68
2023-10-20T00:33:16.974Z,13.67
2023-10-20T00:35:44.581Z,13.67
2023-10-20T00:38:12.580Z,13.68
2023-10-20T00:40:48.132Z,13.70
2023-10-20T00:43:15.782Z,13.71
2023-10-20T00:45:46.374Z,13.73
2023-10-20T00:48:14.750Z,13.76
2023-10-20T00:50:42.630Z,13.76
2023-10-20T00:53:11.262Z,13.78
2023-10-20T00:55:38.932Z,13.79
2023-10-20T00:58:09.491Z,13.81
2023-10-20T01:00:37.026Z,13.84
2023-10-20T01:03:06.013Z,13.86
2023-10-20T01:05:34.009Z,13.86
2023-10-20T01:08:01.653Z,13.88
2023-10-20T01:10:29.539Z,13.89
2023-10-20T01:12:57.077Z,13.90
2023-10-20T01:15:26.064Z,13.89
2023-10-20T01:17:53.722Z,13.90
2023-10-20T01:20:21.403Z,13.90
2023-10-20T01:22:49.004Z,13.90
2023-10-20T01:25:18.047Z,13.91
2023-10-20T01:27:45.697Z,13.92
2023-10-20T01:30:13.611Z,13.94
2023-10-20T01:32:42.924Z,13.94
2023-10-20T01:35:11.032Z,13.94
2023-10-20T01:37:38.635Z,13.96
2023-10-20T01:40:08.716Z,13.95
2023-10-20T01:42:37.734Z,13.94
2023-10-20T01:45:06.154Z,13.94
2023-10-20T01:47:33.772Z,13.94
2023-10-20T01:50:02.434Z,13.94
2023-10-20T01:52:29.975Z,13.94
2023-10-20T01:54:57.672Z,13.94
2023-10-20T01:57:25.223Z,13.94
2023-10-20T01:59:54.107Z,13.93
2023-10-20T02:02:21.791Z,13.93
2023-10-20T02:04:49.389Z,13.92
2023-10-20T02:07:17.168Z,13.92
2023-10-20T02:09:44.701Z,13.93
2023-10-20T02:12:12.464Z,13.95
2023-10-20T02:14:40.042Z,13.97
2023-10-20T02:17:09.603Z,14.00
2023-10-20T02:19:37.889Z,14.01
2023-10-20T02:22:05.817Z,14.04
2023-10-20T02:24:33.524Z,14.03
2023-10-20T02:27:01.162Z,14.03
2023-10-20T02:29:28.767Z,14.05
2023-10-20T02:31:56.408Z,14.05
2023-10-20T02:34:25.957Z,14.06
2023-10-20T02:36:53.482Z,14.05
2023-10-20T02:39:21.368Z,14.05
2023-10-20T02:41:48.940Z,14.04
2023-10-20T02:44:16.516Z,14.04
2023-10-20T02:46:45.018Z,14.01
2023-10-20T02:49:12.656Z,14.01
2023-10-20T02:51:41.541Z,14.01
2023-10-20T02:54:11.158Z,14.01
2023-10-20T02:56:38.913Z,14.01
2023-10-20T02:59:06.670Z,14.01
2023-10-20T03:01:34.319Z,13.99
2023-10-20T03:04:02.362Z,13.98
2023-10-20T03:06:29.989Z,13.98
2023-10-20T03:08:58.848Z,13.95
2023-10-20T03:11:26.445Z,13.94
2023-10-20T03:13:53.997Z,13.92
2023-10-20T03:16:22.521Z,13.91
2023-10-20T03:18:50.176Z,13.91
2023-10-20T03:21:19.262Z,13.91
2023-10-20T03:23:46.918Z,13.88
2023-10-20T03:26:15.924Z,13.86
2023-10-20T03:28:44.711Z,13.87
2023-10-20T03:31:12.557Z,13.87
2023-10-20T03:33:40.203Z,13.84
2023-10-20T03:36:08.009Z,13.81
2023-10-20T03:38:35.592Z,13.78
2023-10-20T03:41:08.140Z,13.74
2023-10-20T03:43:37.412Z,13.70
2023-10-20T03:46:06.248Z,13.66
2023-10-20T03:48:35.820Z,13.63
2023-10-20T03:51:06.236Z,13.61
2023-10-20T03:53:42.349Z,13.58
2023-10-20T03:56:10.761Z,13.55
2023-10-20T03:58:40.020Z,13.52
2023-10-20T04:01:08.276Z,13.50
2023-10-20T04:03:36.072Z,13.47
2023-10-20T04:06:07.459Z,13.46
2023-10-20T04:08:35.276Z,13.45
2023-10-20T04:11:03.005Z,13.46
2023-10-20T04:13:33.145Z,13.45
2023-10-20T04:16:13.166Z,13.42
2023-10-20T04:18:41.454Z,13.41
2023-10-20T04:21:09.420Z,13.42
2023-10-20T04:23:37.836Z,13.41
2023-10-20T04:26:06.237Z,13.40
2023-10-20T04:28:38.128Z,13.41
2023-10-20T04:31:24.789Z,13.41
2023-10-20T04:34:10.017Z,13.39
2023-10-20T04:36:55.317Z,13.37
2023-10-20T04:39:40.688Z,13.35
2023-10-20T04:42:22.138Z,13.34
2023-10-20T04:45:17.133Z,13.34
2023-10-20T04:48:03.469Z,13.34
2023-10-20T04:50:57.195Z,13.33
2023-10-20T04:53:41.788Z,13.32
2023-10-20T04:56:26.979Z,13.30
2023-10-20T04:58:59.357Z,13.29
2023-10-20T05:01:31.450Z,13.31
2023-10-20T05:04:10.632Z,13.33
2023-10-20T05:06:44.032Z,13.33
2023-10-20T05:09:14.732Z,13.34
2023-10-20T05:11:42.920Z,13.34
2023-10-20T05:14:10.706Z,13.33
2023-10-20T05:16:38.295Z,13.32
2023-10-20T05:19:07.553Z,13.34
2023-10-20T05:21:35.834Z,13.35
2023-10-20T05:24:06.029Z,13.32
2023-10-20T05:26:34.031Z,13.32
2023-10-20T05:29:02.263Z,13.28
2023-10-20T05:31:31.128Z,13.30
2023-10-20T05:33:58.933Z,13.28
2023-10-20T05:36:27.859Z,13.27
2023-10-20T05:38:55.401Z,13.26
2023-10-20T05:41:23.030Z,13.26
2023-10-20T05:43:53.566Z,13.25
2023-10-20T05:46:22.657Z,13.23
2023-10-20T05:48:50.264Z,13.22
2023-10-20T05:51:17.894Z,13.18
2023-10-20T05:53:46.838Z,13.16
2023-10-20T05:56:14.414Z,13.16
2023-10-20T05:58:41.996Z,13.17
2023-10-20T06:01:10.386Z,13.18
2023-10-20T06:03:39.142Z,13.20
2023-10-20T06:06:06.934Z,13.19
2023-10-20T06:08:34.755Z,13.22
2023-10-20T06:11:04.736Z,13.24
2023-10-20T06:13:33.848Z,13.28
2023-10-20T06:16:09.637Z,13.31
2023-10-20T06:18:37.784Z,13.35
2023-10-20T06:21:06.203Z,13.37
2023-10-20T06:23:34.340Z,13.39
2023-10-20T06:26:01.938Z,13.40
2023-10-20T06:28:30.832Z,13.39
2023-10-20T06:31:01.976Z,13.39
2023-10-20T06:33:33.776Z,13.42
2023-10-20T06:36:09.950Z,13.42
2023-10-20T06:38:46.206Z,13.43
2023-10-20T06:41:15.322Z,13.44
2023-10-20T06:43:45.237Z,13.45
2023-10-20T06:46:12.906Z,13.46
2023-10-20T06:48:40.466Z,13.48
2023-10-20T06:51:07.991Z,13.51
2023-10-20T06:53:36.391Z,13.56
2023-10-20T06:56:15.160Z,13.60
2023-10-20T06:58:45.810Z,13.65
2023-10-20T07:01:13.452Z,13.70
2023-10-20T07:03:42.041Z,13.75
2023-10-20T07:06:12.036Z,13.78
2023-10-20T07:08:40.931Z,13.80
2023-10-20T07:11:08.850Z,13.81
2023-10-20T07:13:36.415Z,13.84
2023-10-20T07:16:06.042Z,13.87
2023-10-20T07:18:33.766Z,13.90
2023-10-20T07:21:01.387Z,13.93
2023-10-20T07:23:29.116Z,13.96
2023-10-20T07:25:56.733Z,13.99
2023-10-20T07:28:24.263Z,14.00
2023-10-20T07:30:52.047Z,14.02
2023-10-20T07:33:20.982Z,14.05
2023-10-20T07:35:48.774Z,14.08
2023-10-20T07:38:16.938Z,14.10
2023-10-20T07:40:44.509Z,14.11
2023-10-20T07:43:12.216Z,14.09
2023-10-20T07:45:41.557Z,14.07
2023-10-20T07:48:09.854Z,14.06
2023-10-20T07:50:39.024Z,14.06
2023-10-20T07:53:06.726Z,14.04
2023-10-20T07:55:34.323Z,14.01
2023-10-20T07:58:01.833Z,13.99
2023-10-20T08:00:30.650Z,14.00
2023-10-20T08:02:58.466Z,14.02
2023-10-20T08:05:27.174Z,14.07
2023-10-20T08:07:59.496Z,14.10
2023-10-20T08:10:27.056Z,14.12
2023-10-20T08:12:54.977Z,14.16
2023-10-20T08:15:23.046Z,14.22
2023-10-20T08:17:52.696Z,14.27
2023-10-20T08:20:20.526Z,14.30
2023-10-20T08:22:48.171Z,14.32
2023-10-20T08:25:17.569Z,14.35
2023-10-20T08:27:47.321Z,14.39
2023-10-20T08:30:16.453Z,14.41
2023-10-20T08:32:44.276Z,14.43
2023-10-20T08:35:12.529Z,14.47
2023-10-20T08:37:40.189Z,14.51
2023-10-20T08:40:11.743Z,14.55
2023-10-20T08:42:40.951Z,14.57
2023-10-20T08:45:10.035Z,14.57
2023-10-20T08:47:37.864Z,14.70
2023-10-20T08:50:08.374Z,15.03
2023-10-20T08:52:38.884Z,15.01
2023-10-20T08:55:08.767Z,14.91
2023-10-20T08:57:36.424Z,14.81
2023-10-20T09:00:08.375Z,14.71
2023-10-20T09:02:39.295Z,14.62
2023-10-20T09:05:07.884Z,14.54
2023-10-20T09:07:35.516Z,14.48
2023-10-20T09:10:04.036Z,14.46
2023-10-20T09:12:33.759Z,14.42
2023-10-20T09:15:01.289Z,14.39
2023-10-20T09:17:34.957Z,14.35
2023-10-20T09:20:07.563Z,14.34
2023-10-20T09:22:35.163Z,14.33
2023-10-20T09:25:03.959Z,14.29
2023-10-20T09:27:31.576Z,14.25
2023-10-20T09:30:00.325Z,14.23
2023-10-20T09:32:28.771Z,14.20
2023-10-20T09:34:58.998Z,14.16
2023-10-20T09:37:30.977Z,14.13
2023-10-20T09:40:06.881Z,14.08
2023-10-20T09:42:45.117Z,14.04
2023-10-20T09:45:18.264Z,13.99
2023-10-20T09:47:53.133Z,13.98
2023-10-20T09:50:24.542Z,14.00
2023-10-20T09:52:54.633Z,14.04
2023-10-20T09:55:22.737Z,14.10
2023-10-20T09:57:51.342Z,14.17
2023-10-20T10:00:31.751Z,14.26
2023-10-20T10:03:00.502Z,14.32
2023-10-20T10:05:31.974Z,14.39
2023-10-20T10:08:08.686Z,14.48
2023-10-20T10:10:36.995Z,14.59
2023-10-20T10:13:07.069Z,14.67
2023-10-20T10:15:40.412Z,14.72
2023-10-20T10:18:10.751Z,14.87
2023-10-20T10:20:46.825Z,15.32
2023-10-20T10:23:15.843Z,15.73
2023-10-20T10:25:44.997Z,15.88
2023-10-20T10:28:14.840Z,15.88
2023-10-20T10:30:44.419Z,15.83
2023-10-20T10:33:13.380Z,15.79
2023-10-20T10:35:42.893Z,15.78
2023-10-20T10:38:20.120Z,16.40
2023-10-20T10:40:49.437Z,16.69
2023-10-20T10:43:19.209Z,16.67
2023-10-20T10:45:47.229Z,16.70
2023-10-20T10:48:16.184Z,16.66
2023-10-20T10:50:48.997Z,16.57
2023-10-20T10:53:17.332Z,16.48
2023-10-20T10:55:45.918Z,16.46
2023-10-20T10:58:15.005Z,16.46
2023-10-20T11:00:44.387Z,16.60
2023-10-20T11:03:15.254Z,17.11
2023-10-20T11:05:44.959Z,17.76
2023-10-20T11:08:14.430Z,18.02
2023-10-20T11:10:44.713Z,18.03
2023-10-20T11:13:14.526Z,18.05
2023-10-20T11:15:42.605Z,18.12
2023-10-20T11:18:12.156Z,18.21
2023-10-20T11:20:42.401Z,18.47
2023-10-20T11:23:13.480Z,18.78
2023-10-20T11:25:43.149Z,18.85
2023-10-20T11:28:10.959Z,18.80
2023-10-20T11:30:40.193Z,18.72
2023-10-20T11:33:10.812Z,18.87
2023-10-20T11:35:40.789Z,19.00
2023-10-20T11:38:08.343Z,19.08
2023-10-20T11:40:37.210Z,19.09
2023-10-20T11:43:05.592Z,19.09
2023-10-20T11:45:33.540Z,19.07
2023-10-20T11:48:01.254Z,19.06
2023-10-20T11:50:29.352Z,18.98
2023-10-20T11:52:56.965Z,18.85
2023-10-20T11:55:24.746Z,18.87
2023-10-20T11:57:53.657Z,19.24
2023-10-20T12:00:22.993Z,19.34
2023-10-20T12:02:50.849Z,19.27
2023-10-20T12:05:18.662Z,19.15
2023-10-20T12:07:46.282Z,19.12
2023-10-20T12:10:14.655Z,19.13
2023-10-20T12:12:42.308Z,19.07
2023-10-20T12:15:12.821Z,18.97
2023-10-20T12:17:42.335Z,18.92
2023-10-20T12:20:11.528Z,18.89
2023-10-20T12:22:39.068Z,18.82
2023-10-20T12:25:07.535Z,18.71
2023-10-20T12:27:35.084Z,18.65
2023-10-20T12:30:02.645Z,18.62
2023-10-20T12:32:31.647Z,18.58
2023-10-20T12:34:59.247Z,18.50
2023-10-20T12:37:26.870Z,18.46
2023-10-20T12:39:55.306Z,18.39
2023-10-20T12:46:35.418Z,18.34
2023-10-20T12:49:04.572Z,18.28
2023-10-20T12:51:32.274Z,18.22
2023-10-20T12:53:59.888Z,18.17
2023-10-20T12:56:28.455Z,18.11
2023-10-20T12:58:56.597Z,18.08
2023-10-20T13:01:24.452Z,18.05
2023-10-20T13:03:52.410Z,18.01
2023-10-20T13:06:21.607Z,17.96
2023-10-20T13:08:49.319Z,17.94
2023-10-20T13:11:17.088Z,17.89
2023-10-20T13:13:44.715Z,17.83
2023-10-20T13:16:13.150Z,17.81
2023-10-20T13:18:40.866Z,17.80
2023-10-20T13:21:08.537Z,17.76
2023-10-20T13:23:37.522Z,17.73
2023-10-20T13:26:06.248Z,17.74
2023-10-20T13:28:34.237Z,17.76
2023-10-20T13:33:36.162Z,17.76
2023-10-20T13:36:05.249Z,17.77
2023-10-20T13:38:36.233Z,17.77
2023-10-20T13:41:06.481Z,17.77
2023-10-20T13:43:34.156Z,17.77
2023-10-20T13:46:02.780Z,17.75
2023-10-20T13:48:30.613Z,17.74
2023-10-20T13:50:58.436Z,17.73
2023-10-20T13:53:26.635Z,17.74
2023-10-20T13:55:54.263Z,17.73
2023-10-20T13:58:23.471Z,17.74
2023-10-20T14:00:52.475Z,17.74
2023-10-20T14:03:20.326Z,17.72
2023-10-20T14:05:55.744Z,17.71
2023-10-20T14:08:24.018Z,17.70
2023-10-20T14:10:51.761Z,17.69
2023-10-20T14:13:19.791Z,17.68
2023-10-20T14:15:50.734Z,17.66
2023-10-20T14:18:18.776Z,17.66
2023-10-20T14:20:46.691Z,17.66
2023-10-20T14:23:18.769Z,17.65
2023-10-20T14:25:46.430Z,17.64
2023-10-20T14:28:14.214Z,17.63
2023-10-20T14:30:41.775Z,17.61
2023-10-20T14:33:10.853Z,17.58
2023-10-20T14:35:38.962Z,17.54
2023-10-20T14:38:07.019Z,17.52
2023-10-20T14:40:34.619Z,17.50
2023-10-20T14:43:02.207Z,17.46
2023-10-20T14:45:29.801Z,17.44
2023-10-20T14:47:57.547Z,17.41
2023-10-20T14:50:27.733Z,17.37
2023-10-20T14:52:56.341Z,17.35
2023-10-20T14:55:24.982Z,17.33
2023-10-20T14:57:52.679Z,17.29
2023-10-20T15:00:20.421Z,17.25
2023-10-20T15:02:48.178Z,17.23
2023-10-20T15:05:16.015Z,17.19
2023-10-20T15:07:45.340Z,17.17
2023-10-20T15:10:13.143Z,17.13
2023-10-20T15:12:43.789Z,17.10
2023-10-20T15:15:11.899Z,17.05
2023-10-20T15:17:39.682Z,17.01
2023-10-20T15:20:09.808Z,16.98
2023-10-20T15:22:37.406Z,16.93
2023-10-20T15:25:07.323Z,16.85
2023-10-20T15:27:35.023Z,16.80
2023-10-20T15:30:02.760Z,16.74
2023-10-20T15:32:31.427Z,16.69
2023-10-20T15:34:59.290Z,16.65
2023-10-20T15:37:27.232Z,16.61
2023-10-20T15:40:04.158Z,16.57
2023-10-20T15:42:43.755Z,16.53
2023-10-20T15:45:12.556Z,16.48
2023-10-20T15:47:40.423Z,16.41
2023-10-20T15:50:08.825Z,16.37
2023-10-20T15:52:36.429Z,16.31
2023-10-20T15:55:05.244Z,16.25
2023-10-20T15:57:33.042Z,16.20
2023-10-20T16:00:02.084Z,16.12
2023-10-20T16:02:29.944Z,16.04
2023-10-20T16:04:58.039Z,15.99
2023-10-20T16:07:26.198Z,15.94
2023-10-20T16:09:53.897Z,15.86
2023-10-20T16:12:21.618Z,15.80
2023-10-20T16:14:49.247Z,15.75
2023-10-20T16:17:18.225Z,15.72
2023-10-20T16:19:45.876Z,15.69
2023-10-20T16:22:14.065Z,15.68
2023-10-20T16:24:42.677Z,15.68
2023-10-20T16:27:12.885Z,15.66
2023-10-20T16:29:40.674Z,15.64
2023-10-20T16:32:08.813Z,15.61
2023-10-20T16:34:37.851Z,15.60
2023-10-20T16:37:05.776Z,15.55
2023-10-20T16:39:33.564Z,15.49
2023-10-20T16:42:01.541Z,15.44
2023-10-20T16:44:30.602Z,15.39
2023-10-20T16:47:00.001Z,15.36
2023-10-20T16:49:27.823Z,15.33
2023-10-20T16:51:56.796Z,15.28
2023-10-20T16:54:24.446Z,15.21
2023-10-20T16:56:53.142Z,15.13
2023-10-20T16:59:25.029Z,15.06
2023-10-20T17:01:52.755Z,14.98
2023-10-20T17:04:20.546Z,14.89
2023-10-20T17:06:48.288Z,14.79
2023-10-20T17:09:18.423Z,14.72
2023-10-20T17:11:46.306Z,14.67
2023-10-20T17:14:13.995Z,14.63
2023-10-20T17:16:44.014Z,14.61
2023-10-20T17:19:12.037Z,14.59
2023-10-20T17:21:39.666Z,14.54
2023-10-20T17:24:09.213Z,14.54
2023-10-20T17:26:38.351Z,14.52
2023-10-20T17:29:06.776Z,14.48
2023-10-20T17:31:34.943Z,14.45
2023-10-20T17:34:02.795Z,14.44
2023-10-20T17:36:30.642Z,14.40
2023-10-20T17:38:58.829Z,14.41
2023-10-20T17:41:26.478Z,14.39
2023-10-20T17:43:56.952Z,14.39
2023-10-20T17:46:24.549Z,14.38
2023-10-20T17:48:52.473Z,14.37
2023-10-20T17:51:20.088Z,14.36
2023-10-20T17:53:47.746Z,14.35
2023-10-20T17:56:15.558Z,14.34
2023-10-20T17:58:43.644Z,14.33
2023-10-20T18:01:15.243Z,14.35
2023-10-20T18:03:44.758Z,14.37
2023-10-20T18:06:14.754Z,14.41
2023-10-20T18:08:45.566Z,14.40
2023-10-20T18:11:16.545Z,14.38
2023-10-20T18:13:46.094Z,14.37
2023-10-20T18:16:16.856Z,14.37
2023-10-20T18:18:46.237Z,14.37
2023-10-20T18:21:14.372Z,14.33
2023-10-20T18:23:42.181Z,14.34
2023-10-20T18:26:09.841Z,14.36
2023-10-20T18:28:37.748Z,14.37
2023-10-20T18:31:12.645Z,14.38
2023-10-20T18:33:42.359Z,14.38
2023-10-20T18:36:10.514Z,14.37
2023-10-20T18:38:38.217Z,14.35
2023-10-20T18:41:06.347Z,14.34
2023-10-20T18:43:34.840Z,14.32
2023-10-20T18:46:03.377Z,14.30
2023-10-20T18:48:31.170Z,14.29
2023-10-20T18:51:06.241Z,14.27
2023-10-20T18:53:49.172Z,14.26
2023-10-20T18:56:16.916Z,14.26
2023-10-20T18:58:47.556Z,14.26
2023-10-20T19:01:15.913Z,14.25
2023-10-20T19:03:43.900Z,14.23
2023-10-20T19:06:14.284Z,14.24
2023-10-20T19:08:42.121Z,14.25
2023-10-20T19:11:11.499Z,14.24
2023-10-20T19:13:40.223Z,14.22
2023-10-20T19:16:07.893Z,14.21
2023-10-20T19:18:35.662Z,14.20
2023-10-20T19:21:05.943Z,14.20
2023-10-20T19:23:36.521Z,14.20
2023-10-20T19:26:08.666Z,14.18
2023-10-20T19:28:36.493Z,14.16
2023-10-20T19:31:05.291Z,14.12
2023-10-20T19:33:33.481Z,14.11
2023-10-20T19:36:01.774Z,14.09
2023-10-20T19:38:29.441Z,14.06
2023-10-20T19:40:58.768Z,14.00
2023-10-20T19:43:27.112Z,13.98
2023-10-20T19:45:55.018Z,13.95
2023-10-20T19:48:22.646Z,13.93
2023-10-20T19:50:51.191Z,13.91
2023-10-20T19:53:18.856Z,13.89
2023-10-20T19:55:47.301Z,13.88
2023-10-20T19:58:16.390Z,13.88
2023-10-20T20:00:44.061Z,13.86
2023-10-20T20:03:12.393Z,13.82
2023-10-20T20:05:40.604Z,13.80
2023-10-20T20:08:08.921Z,13.79
2023-10-20T20:10:36.517Z,13.78
2023-10-20T20:13:04.619Z,13.78
2023-10-20T20:15:33.645Z,13.76
2023-10-20T20:18:01.386Z,13.77
2023-10-20T20:20:29.280Z,13.79
2023-10-20T20:22:56.801Z,13.79
2023-10-20T20:25:24.454Z,13.79
2023-10-20T20:27:53.333Z,13.75
2023-10-20T20:30:23.283Z,13.72
2023-10-20T20:32:52.324Z,13.68
2023-10-20T20:35:21.265Z,13.68
2023-10-20T20:37:48.795Z,13.66
2023-10-20T20:40:16.559Z,13.65
2023-10-20T20:42:44.150Z,13.64
2023-10-20T20:45:12.150Z,13.63
2023-10-20T20:47:39.928Z,13.59
2023-10-20T20:50:18.862Z,13.58
2023-10-20T20:52:54.054Z,13.57
2023-10-20T20:55:21.678Z,13.55
2023-10-20T20:57:49.239Z,13.55
2023-10-20T21:00:17.711Z,13.53
2023-10-20T21:02:45.347Z,13.51
2023-10-20T21:05:14.639Z,13.49
2023-10-20T21:07:42.207Z,13.48
2023-10-20T21:10:10.536Z,13.48
2023-10-20T21:12:38.064Z,13.47
2023-10-20T21:15:08.654Z,13.47
2023-10-20T21:17:36.386Z,13.47
2023-10-20T21:20:04.803Z,13.45
2023-10-20T21:22:33.723Z,13.43
2023-10-20T21:25:01.286Z,13.43
2023-10-20T21:27:29.278Z,13.43
2023-10-20T21:29:56.933Z,13.42
2023-10-20T21:32:24.478Z,13.42
2023-10-20T21:34:52.081Z,13.41
2023-10-20T21:37:19.667Z,13.41
2023-10-20T21:39:48.659Z,13.42
2023-10-20T21:42:16.305Z,13.40
2023-10-20T21:44:43.852Z,13.44
2023-10-20T21:47:11.654Z,13.45
2023-10-20T21:49:39.562Z,13.48
2023-10-20T21:52:07.318Z,13.51
2023-10-20T21:54:34.923Z,13.53
2023-10-20T21:57:04.038Z,13.54
2023-10-20T21:59:32.389Z,13.53
2023-10-20T22:02:09.636Z,13.51
2023-10-20T22:04:37.958Z,13.50
2023-10-20T22:07:05.510Z,13.47
2023-10-20T22:09:46.620Z,13.45
2023-10-20T22:12:22.042Z,13.44
2023-10-20T22:14:49.673Z,13.42
2023-10-20T22:17:17.253Z,13.43
2023-10-20T22:19:44.865Z,13.42
2023-10-20T22:22:13.156Z,13.41
2023-10-20T22:24:40.659Z,13.40
2023-10-20T22:27:08.333Z,13.42
2023-10-20T22:29:37.717Z,13.44
2023-10-20T22:32:06.415Z,13.44
2023-10-20T22:34:33.928Z,13.40
2023-10-20T22:37:01.480Z,13.37
2023-10-20T22:39:29.006Z,13.34
2023-10-20T22:42:00.691Z,13.31
2023-10-20T22:44:28.627Z,13.24
2023-10-20T22:46:57.602Z,13.20
2023-10-20T22:49:25.812Z,13.16
2023-10-20T22:51:53.372Z,13.13
2023-10-20T22:54:20.982Z,13.10
2023-10-20T22:56:48.560Z,13.05
2023-10-20T22:59:16.138Z,13.03
2023-10-20T23:01:43.742Z,13.01
2023-10-20T23:04:14.837Z,12.99
2023-10-20T23:06:44.849Z,12.97
2023-10-20T23:09:13.989Z,12.96
2023-10-20T23:11:41.660Z,12.91
2023-10-20T23:14:09.236Z,12.86
2023-10-20T23:16:37.089Z,12.83
2023-10-20T23:19:04.786Z,12.80
2023-10-20T23:21:33.641Z,12.78
2023-10-20T23:24:01.241Z,12.77
2023-10-20T23:26:28.825Z,12.77
2023-10-20T23:28:56.547Z,12.78
2023-10-20T23:31:24.148Z,12.80
2023-10-20T23:33:51.816Z,12.78
2023-10-20T23:36:19.687Z,12.77
2023-10-20T23:38:48.575Z,12.75
2023-10-20T23:41:16.124Z,12.75
2023-10-20T23:43:43.632Z,12.73
2023-10-20T23:46:11.167Z,12.72
2023-10-20T23:48:38.806Z,12.73
2023-10-20T23:51:06.541Z,12.70
2023-10-20T23:53:34.127Z,12.70
2023-10-20T23:56:03.040Z,12.68
2023-10-20T23:58:30.560Z,12.63
